sensor_id;sensor_type;location;lat;lon;timestamp;P1;durP1;ratioP1;P2;durP2;ratioP2
19163;SDS011;9714;51.208;4.242;2023-04-01T00:02:06;19.13;;;7.80;;
19163;SDS011;9714;51.208;4.242;2023-04-01T00:04:35;18.83;;;10.87;;
19163;SDS011;9714;51.208;4.242;2023-04-01T00:07:02;20.97;;;13.40;;
19163;SDS011;9714;51.208;4.242;2023-04-01T00:09:29;19.33;;;8.53;;
19163;SDS011;9714;51.208;4.242;2023-04-01T00:11:57;14.60;;;7.87;;
19163;SDS011;9714;51.208;4.242;2023-04-01T00:14:25;17.40;;;7.67;;
19163;SDS011;9714;51.208;4.242;2023-04-01T00:16:52;16.07;;;8.33;;
19163;SDS011;9714;51.208;4.242;2023-04-01T00:19:19;19.60;;;9.40;;
19163;SDS011;9714;51.208;4.242;2023-04-01T00:21:48;24.53;;;10.77;;
19163;SDS011;9714;51.208;4.242;2023-04-01T00:24:15;20.77;;;9.97;;
19163;SDS011;9714;51.208;4.242;2023-04-01T00:26:42;20.07;;;10.00;;
19163;SDS011;9714;51.208;4.242;2023-04-01T00:29:09;24.77;;;11.43;;
19163;SDS011;9714;51.208;4.242;2023-04-01T00:31:37;34.17;;;23.30;;
19163;SDS011;9714;51.208;4.242;2023-04-01T00:34:03;25.83;;;16.60;;
19163;SDS011;9714;51.208;4.242;2023-04-01T00:36:30;20.63;;;10.63;;
19163;SDS011;9714;51.208;4.242;2023-04-01T00:38:59;24.33;;;10.83;;
19163;SDS011;9714;51.208;4.242;2023-04-01T00:41:26;28.07;;;13.00;;
19163;SDS011;9714;51.208;4.242;2023-04-01T00:46:43;23.53;;;12.70;;
19163;SDS011;9714;51.208;4.242;2023-04-01T00:49:10;24.93;;;10.93;;
19163;SDS011;9714;51.208;4.242;2023-04-01T00:51:38;30.17;;;12.33;;
19163;SDS011;9714;51.208;4.242;2023-04-01T00:54:15;22.53;;;10.63;;
19163;SDS011;9714;51.208;4.242;2023-04-01T00:56:45;19.87;;;8.73;;
19163;SDS011;9714;51.208;4.242;2023-04-01T00:59:18;18.90;;;7.60;;
19163;SDS011;9714;51.208;4.242;2023-04-01T01:01:49;18.93;;;13.60;;
19163;SDS011;9714;51.208;4.242;2023-04-01T01:04:29;16.53;;;8.87;;
19163;SDS011;9714;51.208;4.242;2023-04-01T01:07:00;19.23;;;6.83;;
19163;SDS011;9714;51.208;4.242;2023-04-01T01:09:41;19.40;;;5.70;;
19163;SDS011;9714;51.208;4.242;2023-04-01T01:12:14;17.93;;;6.10;;
19163;SDS011;9714;51.208;4.242;2023-04-01T01:14:48;13.13;;;4.93;;
19163;SDS011;9714;51.208;4.242;2023-04-01T01:17:28;20.37;;;6.00;;
19163;SDS011;9714;51.208;4.242;2023-04-01T01:29:13;17.87;;;5.93;;
19163;SDS011;9714;51.208;4.242;2023-04-01T01:31:53;13.90;;;6.40;;
19163;SDS011;9714;51.208;4.242;2023-04-01T01:34:32;18.03;;;6.60;;
19163;SDS011;9714;51.208;4.242;2023-04-01T01:37:08;18.23;;;6.20;;
19163;SDS011;9714;51.208;4.242;2023-04-01T01:39:38;19.47;;;6.43;;
19163;SDS011;9714;51.208;4.242;2023-04-01T01:42:09;14.73;;;5.50;;
19163;SDS011;9714;51.208;4.242;2023-04-01T01:44:39;16.13;;;6.43;;
19163;SDS011;9714;51.208;4.242;2023-04-01T01:47:10;17.63;;;6.77;;
19163;SDS011;9714;51.208;4.242;2023-04-01T01:49:37;19.97;;;6.10;;
19163;SDS011;9714;51.208;4.242;2023-04-01T01:52:08;13.47;;;5.40;;
19163;SDS011;9714;51.208;4.242;2023-04-01T01:54:35;13.03;;;5.90;;
19163;SDS011;9714;51.208;4.242;2023-04-01T01:57:03;15.10;;;5.80;;
19163;SDS011;9714;51.208;4.242;2023-04-01T01:59:33;14.63;;;6.03;;
19163;SDS011;9714;51.208;4.242;2023-04-01T02:02:03;20.90;;;8.33;;
19163;SDS011;9714;51.208;4.242;2023-04-01T02:04:33;15.27;;;6.03;;
19163;SDS011;9714;51.208;4.242;2023-04-01T02:07:04;14.00;;;6.00;;
19163;SDS011;9714;51.208;4.242;2023-04-01T02:09:37;16.43;;;6.20;;
19163;SDS011;9714;51.208;4.242;2023-04-01T02:12:05;14.57;;;6.80;;
19163;SDS011;9714;51.208;4.242;2023-04-01T02:14:35;15.90;;;6.67;;
19163;SDS011;9714;51.208;4.242;2023-04-01T02:17:06;12.63;;;5.67;;
19163;SDS011;9714;51.208;4.242;2023-04-01T02:19:36;14.77;;;5.37;;
19163;SDS011;9714;51.208;4.242;2023-04-01T02:22:06;13.93;;;6.03;;
19163;SDS011;9714;51.208;4.242;2023-04-01T02:24:38;17.47;;;5.97;;
19163;SDS011;9714;51.208;4.242;2023-04-01T02:27:08;18.23;;;7.33;;
19163;SDS011;9714;51.208;4.242;2023-04-01T02:29:36;15.30;;;7.17;;
19163;SDS011;9714;51.208;4.242;2023-04-01T02:32:03;16.23;;;6.27;;
19163;SDS011;9714;51.208;4.242;2023-04-01T02:34:32;15.93;;;7.47;;
19163;SDS011;9714;51.208;4.242;2023-04-01T02:36:59;19.10;;;7.43;;
19163;SDS011;9714;51.208;4.242;2023-04-01T02:39:28;15.57;;;8.47;;
19163;SDS011;9714;51.208;4.242;2023-04-01T02:41:56;14.83;;;7.27;;
19163;SDS011;9714;51.208;4.242;2023-04-01T02:44:23;16.93;;;7.07;;
19163;SDS011;9714;51.208;4.242;2023-04-01T02:46:50;16.37;;;7.50;;
19163;SDS011;9714;51.208;4.242;2023-04-01T02:49:18;13.10;;;6.57;;
19163;SDS011;9714;51.208;4.242;2023-04-01T02:51:45;13.47;;;6.33;;
19163;SDS011;9714;51.208;4.242;2023-04-01T02:54:12;15.93;;;7.07;;
19163;SDS011;9714;51.208;4.242;2023-04-01T02:56:40;14.70;;;7.77;;
19163;SDS011;9714;51.208;4.242;2023-04-01T02:59:07;18.93;;;8.60;;
19163;SDS011;9714;51.208;4.242;2023-04-01T03:01:34;16.93;;;11.73;;
19163;SDS011;9714;51.208;4.242;2023-04-01T03:04:01;19.17;;;13.03;;
19163;SDS011;9714;51.208;4.242;2023-04-01T03:06:28;15.77;;;8.13;;
19163;SDS011;9714;51.208;4.242;2023-04-01T03:08:55;14.87;;;7.40;;
19163;SDS011;9714;51.208;4.242;2023-04-01T03:11:22;13.00;;;6.50;;
19163;SDS011;9714;51.208;4.242;2023-04-01T03:13:52;19.87;;;7.63;;
19163;SDS011;9714;51.208;4.242;2023-04-01T03:16:19;15.53;;;7.43;;
19163;SDS011;9714;51.208;4.242;2023-04-01T03:18:45;16.03;;;6.97;;
19163;SDS011;9714;51.208;4.242;2023-04-01T03:23:42;16.23;;;7.70;;
19163;SDS011;9714;51.208;4.242;2023-04-01T03:26:09;15.40;;;6.40;;
19163;SDS011;9714;51.208;4.242;2023-04-01T03:28:36;18.57;;;7.30;;
19163;SDS011;9714;51.208;4.242;2023-04-01T03:31:05;16.90;;;7.60;;
19163;SDS011;9714;51.208;4.242;2023-04-01T03:33:32;14.60;;;7.23;;
19163;SDS011;9714;51.208;4.242;2023-04-01T03:35:59;14.60;;;7.47;;
19163;SDS011;9714;51.208;4.242;2023-04-01T03:38:26;19.13;;;7.77;;
19163;SDS011;9714;51.208;4.242;2023-04-01T03:40:53;20.23;;;9.67;;
19163;SDS011;9714;51.208;4.242;2023-04-01T03:43:20;17.83;;;7.73;;
19163;SDS011;9714;51.208;4.242;2023-04-01T03:45:48;15.57;;;8.13;;
19163;SDS011;9714;51.208;4.242;2023-04-01T03:48:17;18.47;;;8.20;;
19163;SDS011;9714;51.208;4.242;2023-04-01T03:50:44;18.57;;;8.47;;
19163;SDS011;9714;51.208;4.242;2023-04-01T03:53:11;16.63;;;8.17;;
19163;SDS011;9714;51.208;4.242;2023-04-01T03:55:39;21.17;;;9.80;;
19163;SDS011;9714;51.208;4.242;2023-04-01T03:58:06;16.30;;;8.13;;
19163;SDS011;9714;51.208;4.242;2023-04-01T04:00:34;16.67;;;7.77;;
19163;SDS011;9714;51.208;4.242;2023-04-01T04:03:01;20.97;;;14.10;;
19163;SDS011;9714;51.208;4.242;2023-04-01T04:05:29;15.47;;;8.37;;
19163;SDS011;9714;51.208;4.242;2023-04-01T04:07:57;16.20;;;8.20;;
19163;SDS011;9714;51.208;4.242;2023-04-01T04:10:24;22.93;;;9.97;;
19163;SDS011;9714;51.208;4.242;2023-04-01T04:12:51;23.77;;;8.60;;
19163;SDS011;9714;51.208;4.242;2023-04-01T04:15:18;17.00;;;9.47;;
19163;SDS011;9714;51.208;4.242;2023-04-01T04:17:45;20.60;;;7.57;;
19163;SDS011;9714;51.208;4.242;2023-04-01T04:20:13;13.30;;;6.93;;
19163;SDS011;9714;51.208;4.242;2023-04-01T04:22:41;14.37;;;6.60;;
19163;SDS011;9714;51.208;4.242;2023-04-01T04:25:08;14.93;;;5.67;;
19163;SDS011;9714;51.208;4.242;2023-04-01T04:27:35;12.17;;;6.07;;
19163;SDS011;9714;51.208;4.242;2023-04-01T04:30:03;14.80;;;6.60;;
19163;SDS011;9714;51.208;4.242;2023-04-01T04:32:31;17.90;;;13.27;;
19163;SDS011;9714;51.208;4.242;2023-04-01T04:34:58;12.50;;;6.90;;
19163;SDS011;9714;51.208;4.242;2023-04-01T04:37:25;15.60;;;7.60;;
19163;SDS011;9714;51.208;4.242;2023-04-01T04:39:54;14.97;;;6.53;;
19163;SDS011;9714;51.208;4.242;2023-04-01T04:42:21;15.77;;;7.83;;
19163;SDS011;9714;51.208;4.242;2023-04-01T04:44:48;16.67;;;6.80;;
19163;SDS011;9714;51.208;4.242;2023-04-01T04:47:15;13.10;;;5.03;;
19163;SDS011;9714;51.208;4.242;2023-04-01T04:49:42;14.47;;;6.37;;
19163;SDS011;9714;51.208;4.242;2023-04-01T04:52:09;9.10;;;4.60;;
19163;SDS011;9714;51.208;4.242;2023-04-01T04:54:36;8.67;;;4.27;;
19163;SDS011;9714;51.208;4.242;2023-04-01T04:57:04;12.23;;;4.20;;
19163;SDS011;9714;51.208;4.242;2023-04-01T04:59:31;10.67;;;4.63;;
19163;SDS011;9714;51.208;4.242;2023-04-01T05:01:58;11.67;;;7.83;;
19163;SDS011;9714;51.208;4.242;2023-04-01T05:04:25;13.23;;;6.60;;
19163;SDS011;9714;51.208;4.242;2023-04-01T05:06:52;11.40;;;5.07;;
19163;SDS011;9714;51.208;4.242;2023-04-01T05:09:19;14.77;;;5.80;;
19163;SDS011;9714;51.208;4.242;2023-04-01T05:11:46;17.00;;;4.73;;
19163;SDS011;9714;51.208;4.242;2023-04-01T05:14:15;12.13;;;5.17;;
19163;SDS011;9714;51.208;4.242;2023-04-01T05:16:42;11.80;;;5.67;;
19163;SDS011;9714;51.208;4.242;2023-04-01T05:19:09;12.87;;;6.00;;
19163;SDS011;9714;51.208;4.242;2023-04-01T05:21:36;12.00;;;5.13;;
19163;SDS011;9714;51.208;4.242;2023-04-01T05:24:06;11.87;;;5.30;;
19163;SDS011;9714;51.208;4.242;2023-04-01T05:26:34;10.47;;;4.77;;
19163;SDS011;9714;51.208;4.242;2023-04-01T05:29:01;10.40;;;4.77;;
19163;SDS011;9714;51.208;4.242;2023-04-01T05:31:30;11.40;;;4.77;;
19163;SDS011;9714;51.208;4.242;2023-04-01T05:33:57;10.27;;;5.40;;
19163;SDS011;9714;51.208;4.242;2023-04-01T05:36:24;10.73;;;5.17;;
19163;SDS011;9714;51.208;4.242;2023-04-01T05:38:54;15.67;;;5.73;;
19163;SDS011;9714;51.208;4.242;2023-04-01T05:41:21;17.10;;;6.43;;
19163;SDS011;9714;51.208;4.242;2023-04-01T05:43:48;13.23;;;6.43;;
19163;SDS011;9714;51.208;4.242;2023-04-01T05:46:15;11.90;;;4.87;;
19163;SDS011;9714;51.208;4.242;2023-04-01T05:48:44;13.30;;;5.10;;
19163;SDS011;9714;51.208;4.242;2023-04-01T05:51:12;11.57;;;4.90;;
19163;SDS011;9714;51.208;4.242;2023-04-01T05:53:39;9.90;;;5.03;;
19163;SDS011;9714;51.208;4.242;2023-04-01T05:56:07;14.33;;;5.93;;
19163;SDS011;9714;51.208;4.242;2023-04-01T05:58:34;14.17;;;5.40;;
19163;SDS011;9714;51.208;4.242;2023-04-01T06:01:02;10.57;;;4.90;;
19163;SDS011;9714;51.208;4.242;2023-04-01T06:03:31;9.67;;;4.83;;
19163;SDS011;9714;51.208;4.242;2023-04-01T06:05:59;10.53;;;4.57;;
19163;SDS011;9714;51.208;4.242;2023-04-01T06:08:27;13.27;;;5.37;;
19163;SDS011;9714;51.208;4.242;2023-04-01T06:11:01;12.80;;;5.20;;
19163;SDS011;9714;51.208;4.242;2023-04-01T06:13:37;13.53;;;5.53;;
19163;SDS011;9714;51.208;4.242;2023-04-01T06:16:18;11.20;;;5.43;;
19163;SDS011;9714;51.208;4.242;2023-04-01T06:18:53;14.83;;;5.50;;
19163;SDS011;9714;51.208;4.242;2023-04-01T06:21:44;12.23;;;4.83;;
19163;SDS011;9714;51.208;4.242;2023-04-01T06:24:40;10.40;;;4.33;;
19163;SDS011;9714;51.208;4.242;2023-04-01T06:27:21;9.07;;;4.17;;
19163;SDS011;9714;51.208;4.242;2023-04-01T06:30:02;7.37;;;2.70;;
19163;SDS011;9714;51.208;4.242;2023-04-01T06:32:49;10.90;;;3.90;;
19163;SDS011;9714;51.208;4.242;2023-04-01T06:35:41;9.40;;;4.00;;
19163;SDS011;9714;51.208;4.242;2023-04-01T06:38:34;10.70;;;3.40;;
19163;SDS011;9714;51.208;4.242;2023-04-01T06:41:17;11.50;;;4.00;;
19163;SDS011;9714;51.208;4.242;2023-04-01T06:44:05;6.93;;;3.13;;
19163;SDS011;9714;51.208;4.242;2023-04-01T06:46:43;8.07;;;3.70;;
19163;SDS011;9714;51.208;4.242;2023-04-01T06:49:25;7.87;;;4.00;;
19163;SDS011;9714;51.208;4.242;2023-04-01T06:52:02;9.90;;;4.10;;
19163;SDS011;9714;51.208;4.242;2023-04-01T06:54:41;11.27;;;4.13;;
19163;SDS011;9714;51.208;4.242;2023-04-01T06:57:16;9.47;;;3.70;;
19163;SDS011;9714;51.208;4.242;2023-04-01T06:59:50;10.57;;;3.90;;
19163;SDS011;9714;51.208;4.242;2023-04-01T07:02:24;7.43;;;3.20;;
19163;SDS011;9714;51.208;4.242;2023-04-01T07:04:57;8.47;;;3.53;;
19163;SDS011;9714;51.208;4.242;2023-04-01T07:07:27;9.47;;;3.90;;
19163;SDS011;9714;51.208;4.242;2023-04-01T07:10:03;10.60;;;4.50;;
19163;SDS011;9714;51.208;4.242;2023-04-01T07:12:37;8.43;;;4.33;;
19163;SDS011;9714;51.208;4.242;2023-04-01T07:15:13;12.97;;;5.37;;
19163;SDS011;9714;51.208;4.242;2023-04-01T07:17:48;10.37;;;5.70;;
19163;SDS011;9714;51.208;4.242;2023-04-01T07:20:22;11.07;;;5.33;;
19163;SDS011;9714;51.208;4.242;2023-04-01T07:22:52;13.13;;;5.37;;
19163;SDS011;9714;51.208;4.242;2023-04-01T07:25:24;12.20;;;5.90;;
19163;SDS011;9714;51.208;4.242;2023-04-01T07:27:56;11.70;;;5.27;;
19163;SDS011;9714;51.208;4.242;2023-04-01T07:30:28;15.73;;;5.50;;
19163;SDS011;9714;51.208;4.242;2023-04-01T07:33:11;10.47;;;4.40;;
19163;SDS011;9714;51.208;4.242;2023-04-01T07:35:44;12.50;;;5.30;;
19163;SDS011;9714;51.208;4.242;2023-04-01T07:38:19;9.97;;;4.70;;
19163;SDS011;9714;51.208;4.242;2023-04-01T07:41:00;12.43;;;4.60;;
19163;SDS011;9714;51.208;4.242;2023-04-01T07:43:53;7.60;;;3.30;;
19163;SDS011;9714;51.208;4.242;2023-04-01T07:46:33;8.53;;;4.10;;
19163;SDS011;9714;51.208;4.242;2023-04-01T07:49:22;7.57;;;3.30;;
19163;SDS011;9714;51.208;4.242;2023-04-01T07:51:58;7.80;;;3.53;;
19163;SDS011;9714;51.208;4.242;2023-04-01T07:54:37;6.77;;;3.10;;
19163;SDS011;9714;51.208;4.242;2023-04-01T07:57:24;8.13;;;2.90;;
19163;SDS011;9714;51.208;4.242;2023-04-01T08:00:01;5.93;;;2.57;;
19163;SDS011;9714;51.208;4.242;2023-04-01T08:02:43;7.23;;;3.00;;
19163;SDS011;9714;51.208;4.242;2023-04-01T08:05:22;6.87;;;2.70;;
19163;SDS011;9714;51.208;4.242;2023-04-01T08:07:54;8.17;;;2.67;;
19163;SDS011;9714;51.208;4.242;2023-04-01T08:10:30;7.57;;;3.03;;
19163;SDS011;9714;51.208;4.242;2023-04-01T08:13:06;8.43;;;2.87;;
19163;SDS011;9714;51.208;4.242;2023-04-01T08:15:41;3.37;;;2.20;;
19163;SDS011;9714;51.208;4.242;2023-04-01T08:18:20;5.63;;;2.77;;
19163;SDS011;9714;51.208;4.242;2023-04-01T08:20:56;6.83;;;3.00;;
19163;SDS011;9714;51.208;4.242;2023-04-01T08:23:26;6.70;;;2.70;;
19163;SDS011;9714;51.208;4.242;2023-04-01T08:26:02;5.00;;;2.60;;
19163;SDS011;9714;51.208;4.242;2023-04-01T08:28:41;7.53;;;2.80;;
19163;SDS011;9714;51.208;4.242;2023-04-01T08:31:13;5.40;;;2.63;;
19163;SDS011;9714;51.208;4.242;2023-04-01T08:33:44;4.10;;;2.40;;
19163;SDS011;9714;51.208;4.242;2023-04-01T08:36:14;4.63;;;2.43;;
19163;SDS011;9714;51.208;4.242;2023-04-01T08:38:43;5.27;;;2.20;;
19163;SDS011;9714;51.208;4.242;2023-04-01T08:41:20;3.83;;;1.97;;
19163;SDS011;9714;51.208;4.242;2023-04-01T08:47:17;5.53;;;2.00;;
19163;SDS011;9714;51.208;4.242;2023-04-01T08:50:15;4.53;;;1.73;;
19163;SDS011;9714;51.208;4.242;2023-04-01T08:53:03;3.97;;;1.83;;
19163;SDS011;9714;51.208;4.242;2023-04-01T08:55:40;2.10;;;1.27;;
19163;SDS011;9714;51.208;4.242;2023-04-01T09:01:20;4.20;;;1.60;;
19163;SDS011;9714;51.208;4.242;2023-04-01T09:07:06;2.30;;;1.50;;
19163;SDS011;9714;51.208;4.242;2023-04-01T09:09:44;2.83;;;1.50;;
19163;SDS011;9714;51.208;4.242;2023-04-01T09:12:41;3.30;;;1.70;;
19163;SDS011;9714;51.208;4.242;2023-04-01T09:19:15;7.67;;;1.90;;
19163;SDS011;9714;51.208;4.242;2023-04-01T09:22:08;5.47;;;2.23;;
19163;SDS011;9714;51.208;4.242;2023-04-01T09:25:02;5.03;;;2.37;;
19163;SDS011;9714;51.208;4.242;2023-04-01T09:28:00;6.50;;;2.53;;
19163;SDS011;9714;51.208;4.242;2023-04-01T09:34:07;4.70;;;2.20;;
19163;SDS011;9714;51.208;4.242;2023-04-01T09:36:58;5.80;;;2.10;;
19163;SDS011;9714;51.208;4.242;2023-04-01T09:39:46;4.87;;;2.00;;
19163;SDS011;9714;51.208;4.242;2023-04-01T09:42:39;4.90;;;1.80;;
19163;SDS011;9714;51.208;4.242;2023-04-01T09:45:15;5.70;;;1.80;;
19163;SDS011;9714;51.208;4.242;2023-04-01T09:48:06;4.03;;;1.63;;
19163;SDS011;9714;51.208;4.242;2023-04-01T09:50:57;3.83;;;1.30;;
19163;SDS011;9714;51.208;4.242;2023-04-01T09:53:40;4.73;;;1.60;;
19163;SDS011;9714;51.208;4.242;2023-04-01T09:59:40;5.37;;;1.70;;
19163;SDS011;9714;51.208;4.242;2023-04-01T10:02:40;4.40;;;1.80;;
19163;SDS011;9714;51.208;4.242;2023-04-01T10:05:46;4.43;;;1.73;;
19163;SDS011;9714;51.208;4.242;2023-04-01T10:14:58;4.57;;;1.67;;
19163;SDS011;9714;51.208;4.242;2023-04-01T10:17:58;7.33;;;1.87;;
19163;SDS011;9714;51.208;4.242;2023-04-01T10:23:59;5.83;;;1.77;;
19163;SDS011;9714;51.208;4.242;2023-04-01T10:26:58;5.23;;;2.13;;
19163;SDS011;9714;51.208;4.242;2023-04-01T10:33:06;8.97;;;2.60;;
19163;SDS011;9714;51.208;4.242;2023-04-01T10:42:24;8.73;;;3.00;;
19163;SDS011;9714;51.208;4.242;2023-04-01T10:51:15;9.40;;;3.17;;
19163;SDS011;9714;51.208;4.242;2023-04-01T10:56:57;10.30;;;2.83;;
19163;SDS011;9714;51.208;4.242;2023-04-01T11:15:45;9.00;;;2.70;;
19163;SDS011;9714;51.208;4.242;2023-04-01T11:21:55;3.90;;;1.90;;
19163;SDS011;9714;51.208;4.242;2023-04-01T11:27:38;8.17;;;2.37;;
19163;SDS011;9714;51.208;4.242;2023-04-01T11:30:22;8.17;;;2.57;;
19163;SDS011;9714;51.208;4.242;2023-04-01T11:33:06;7.63;;;2.13;;
19163;SDS011;9714;51.208;4.242;2023-04-01T11:35:42;10.20;;;3.10;;
19163;SDS011;9714;51.208;4.242;2023-04-01T11:38:40;8.17;;;3.03;;
19163;SDS011;9714;51.208;4.242;2023-04-01T11:41:23;7.37;;;2.87;;
19163;SDS011;9714;51.208;4.242;2023-04-01T11:44:04;5.67;;;2.47;;
19163;SDS011;9714;51.208;4.242;2023-04-01T11:46:42;5.47;;;2.47;;
19163;SDS011;9714;51.208;4.242;2023-04-01T11:49:25;5.60;;;2.17;;
19163;SDS011;9714;51.208;4.242;2023-04-01T11:52:17;8.33;;;2.13;;
19163;SDS011;9714;51.208;4.242;2023-04-01T11:55:01;10.07;;;2.23;;
19163;SDS011;9714;51.208;4.242;2023-04-01T11:57:43;8.23;;;2.50;;
19163;SDS011;9714;51.208;4.242;2023-04-01T12:03:17;5.93;;;2.50;;
19163;SDS011;9714;51.208;4.242;2023-04-01T12:05:58;7.03;;;2.20;;
19163;SDS011;9714;51.208;4.242;2023-04-01T12:08:33;8.53;;;2.60;;
19163;SDS011;9714;51.208;4.242;2023-04-01T12:11:12;5.73;;;2.03;;
19163;SDS011;9714;51.208;4.242;2023-04-01T12:13:49;11.10;;;4.17;;
19163;SDS011;9714;51.208;4.242;2023-04-01T12:16:25;8.87;;;3.60;;
19163;SDS011;9714;51.208;4.242;2023-04-01T12:19:13;5.53;;;1.87;;
19163;SDS011;9714;51.208;4.242;2023-04-01T12:21:49;6.37;;;2.13;;
19163;SDS011;9714;51.208;4.242;2023-04-01T12:24:39;5.20;;;2.00;;
19163;SDS011;9714;51.208;4.242;2023-04-01T12:30:22;2.83;;;1.50;;
19163;SDS011;9714;51.208;4.242;2023-04-01T12:33:03;4.83;;;2.27;;
19163;SDS011;9714;51.208;4.242;2023-04-01T12:35:45;6.23;;;1.83;;
19163;SDS011;9714;51.208;4.242;2023-04-01T12:38:24;6.13;;;1.90;;
19163;SDS011;9714;51.208;4.242;2023-04-01T12:41:02;5.63;;;2.03;;
19163;SDS011;9714;51.208;4.242;2023-04-01T12:43:53;4.43;;;2.10;;
19163;SDS011;9714;51.208;4.242;2023-04-01T12:46:52;8.07;;;3.77;;
19163;SDS011;9714;51.208;4.242;2023-04-01T12:49:33;9.43;;;3.60;;
19163;SDS011;9714;51.208;4.242;2023-04-01T12:52:16;10.87;;;3.50;;
19163;SDS011;9714;51.208;4.242;2023-04-01T12:55:06;6.67;;;2.80;;
19163;SDS011;9714;51.208;4.242;2023-04-01T13:07:05;10.30;;;3.17;;
19163;SDS011;9714;51.208;4.242;2023-04-01T13:12:06;7.63;;;3.00;;
19163;SDS011;9714;51.208;4.242;2023-04-01T13:17:53;6.70;;;2.27;;
19163;SDS011;9714;51.208;4.242;2023-04-01T13:20:30;6.77;;;2.70;;
19163;SDS011;9714;51.208;4.242;2023-04-01T13:23:09;9.37;;;3.47;;
19163;SDS011;9714;51.208;4.242;2023-04-01T13:25:44;6.07;;;2.80;;
19163;SDS011;9714;51.208;4.242;2023-04-01T13:28:20;10.67;;;3.20;;
19163;SDS011;9714;51.208;4.242;2023-04-01T13:30:53;9.47;;;3.60;;
19163;SDS011;9714;51.208;4.242;2023-04-01T13:33:27;12.47;;;4.37;;
19163;SDS011;9714;51.208;4.242;2023-04-01T13:39:02;14.60;;;4.90;;
19163;SDS011;9714;51.208;4.242;2023-04-01T13:41:45;11.67;;;3.80;;
19163;SDS011;9714;51.208;4.242;2023-04-01T13:44:24;5.97;;;2.03;;
19163;SDS011;9714;51.208;4.242;2023-04-01T13:47:04;6.07;;;2.20;;
19163;SDS011;9714;51.208;4.242;2023-04-01T13:49:44;7.37;;;1.70;;
19163;SDS011;9714;51.208;4.242;2023-04-01T13:52:36;3.77;;;1.43;;
19163;SDS011;9714;51.208;4.242;2023-04-01T13:58:31;4.47;;;1.30;;
19163;SDS011;9714;51.208;4.242;2023-04-01T14:01:12;6.70;;;1.50;;
19163;SDS011;9714;51.208;4.242;2023-04-01T14:04:06;5.90;;;2.30;;
19163;SDS011;9714;51.208;4.242;2023-04-01T14:06:50;4.10;;;1.33;;
19163;SDS011;9714;51.208;4.242;2023-04-01T14:09:32;4.17;;;1.50;;
19163;SDS011;9714;51.208;4.242;2023-04-01T14:12:13;9.50;;;2.40;;
19163;SDS011;9714;51.208;4.242;2023-04-01T14:14:55;6.93;;;2.57;;
19163;SDS011;9714;51.208;4.242;2023-04-01T14:17:49;8.83;;;2.47;;
19163;SDS011;9714;51.208;4.242;2023-04-01T14:20:31;8.23;;;2.37;;
19163;SDS011;9714;51.208;4.242;2023-04-01T14:23:12;8.20;;;2.77;;
19163;SDS011;9714;51.208;4.242;2023-04-01T14:29:18;3.77;;;1.70;;
19163;SDS011;9714;51.208;4.242;2023-04-01T14:32:00;5.17;;;1.40;;
19163;SDS011;9714;51.208;4.242;2023-04-01T14:34:40;4.97;;;1.73;;
19163;SDS011;9714;51.208;4.242;2023-04-01T14:37:23;2.63;;;1.23;;
19163;SDS011;9714;51.208;4.242;2023-04-01T14:40:16;4.93;;;1.23;;
19163;SDS011;9714;51.208;4.242;2023-04-01T14:42:58;4.93;;;1.30;;
19163;SDS011;9714;51.208;4.242;2023-04-01T14:45:45;3.70;;;1.57;;
19163;SDS011;9714;51.208;4.242;2023-04-01T14:48:25;6.63;;;1.73;;
19163;SDS011;9714;51.208;4.242;2023-04-01T14:51:02;5.27;;;1.73;;
19163;SDS011;9714;51.208;4.242;2023-04-01T14:53:36;7.23;;;2.23;;
19163;SDS011;9714;51.208;4.242;2023-04-01T14:56:11;5.37;;;1.67;;
19163;SDS011;9714;51.208;4.242;2023-04-01T14:58:41;11.03;;;2.10;;
19163;SDS011;9714;51.208;4.242;2023-04-01T15:04:10;5.77;;;2.10;;
19163;SDS011;9714;51.208;4.242;2023-04-01T15:06:56;5.90;;;1.73;;
19163;SDS011;9714;51.208;4.242;2023-04-01T15:09:35;5.47;;;1.80;;
19163;SDS011;9714;51.208;4.242;2023-04-01T15:12:13;5.97;;;1.93;;
19163;SDS011;9714;51.208;4.242;2023-04-01T15:14:51;4.10;;;1.60;;
19163;SDS011;9714;51.208;4.242;2023-04-01T15:17:48;8.53;;;2.33;;
19163;SDS011;9714;51.208;4.242;2023-04-01T15:20:51;3.77;;;1.60;;
19163;SDS011;9714;51.208;4.242;2023-04-01T15:23:36;5.53;;;1.70;;
19163;SDS011;9714;51.208;4.242;2023-04-01T15:26:13;6.23;;;2.00;;
19163;SDS011;9714;51.208;4.242;2023-04-01T15:29:04;6.00;;;1.90;;
19163;SDS011;9714;51.208;4.242;2023-04-01T15:31:42;6.63;;;2.00;;
19163;SDS011;9714;51.208;4.242;2023-04-01T15:34:23;5.17;;;1.53;;
19163;SDS011;9714;51.208;4.242;2023-04-01T15:36:59;4.93;;;1.60;;
19163;SDS011;9714;51.208;4.242;2023-04-01T15:39:41;5.90;;;2.00;;
19163;SDS011;9714;51.208;4.242;2023-04-01T15:42:19;5.57;;;2.07;;
19163;SDS011;9714;51.208;4.242;2023-04-01T15:45:12;4.57;;;1.80;;
19163;SDS011;9714;51.208;4.242;2023-04-01T15:48:01;5.53;;;1.90;;
19163;SDS011;9714;51.208;4.242;2023-04-01T15:53:29;4.80;;;1.90;;
19163;SDS011;9714;51.208;4.242;2023-04-01T15:56:16;7.03;;;2.27;;
19163;SDS011;9714;51.208;4.242;2023-04-01T15:58:54;5.70;;;1.87;;
19163;SDS011;9714;51.208;4.242;2023-04-01T16:01:32;10.43;;;3.13;;
19163;SDS011;9714;51.208;4.242;2023-04-01T16:04:07;9.90;;;2.80;;
19163;SDS011;9714;51.208;4.242;2023-04-01T16:07:03;8.57;;;3.20;;
19163;SDS011;9714;51.208;4.242;2023-04-01T16:09:43;10.47;;;2.90;;
19163;SDS011;9714;51.208;4.242;2023-04-01T16:12:23;9.43;;;3.30;;
19163;SDS011;9714;51.208;4.242;2023-04-01T16:15:09;6.90;;;2.50;;
19163;SDS011;9714;51.208;4.242;2023-04-01T16:17:54;10.13;;;3.60;;
19163;SDS011;9714;51.208;4.242;2023-04-01T16:20:54;9.80;;;3.70;;
19163;SDS011;9714;51.208;4.242;2023-04-01T16:23:29;8.57;;;4.00;;
19163;SDS011;9714;51.208;4.242;2023-04-01T16:26:07;11.00;;;4.20;;
19163;SDS011;9714;51.208;4.242;2023-04-01T16:28:42;10.97;;;4.70;;
19163;SDS011;9714;51.208;4.242;2023-04-01T16:31:26;8.90;;;4.27;;
19163;SDS011;9714;51.208;4.242;2023-04-01T16:33:59;8.43;;;4.10;;
19163;SDS011;9714;51.208;4.242;2023-04-01T16:36:33;7.70;;;3.70;;
19163;SDS011;9714;51.208;4.242;2023-04-01T16:39:15;8.37;;;3.20;;
19163;SDS011;9714;51.208;4.242;2023-04-01T16:42:15;8.53;;;3.60;;
19163;SDS011;9714;51.208;4.242;2023-04-01T16:44:52;11.80;;;4.53;;
19163;SDS011;9714;51.208;4.242;2023-04-01T16:47:27;10.93;;;4.90;;
19163;SDS011;9714;51.208;4.242;2023-04-01T16:49:58;12.77;;;4.97;;
19163;SDS011;9714;51.208;4.242;2023-04-01T16:52:51;13.67;;;5.37;;
19163;SDS011;9714;51.208;4.242;2023-04-01T16:55:46;17.83;;;6.83;;
19163;SDS011;9714;51.208;4.242;2023-04-01T16:58:26;14.07;;;6.33;;
19163;SDS011;9714;51.208;4.242;2023-04-01T17:01:03;17.07;;;6.27;;
19163;SDS011;9714;51.208;4.242;2023-04-01T17:03:33;11.30;;;5.00;;
19163;SDS011;9714;51.208;4.242;2023-04-01T17:06:08;14.27;;;4.87;;
19163;SDS011;9714;51.208;4.242;2023-04-01T17:08:56;11.80;;;4.63;;
19163;SDS011;9714;51.208;4.242;2023-04-01T17:11:32;18.20;;;5.40;;
19163;SDS011;9714;51.208;4.242;2023-04-01T17:14:09;14.63;;;4.87;;
19163;SDS011;9714;51.208;4.242;2023-04-01T17:16:49;17.07;;;5.53;;
19163;SDS011;9714;51.208;4.242;2023-04-01T17:19:39;11.80;;;3.57;;
19163;SDS011;9714;51.208;4.242;2023-04-01T17:22:19;12.90;;;3.77;;
19163;SDS011;9714;51.208;4.242;2023-04-01T17:24:58;9.93;;;3.77;;
19163;SDS011;9714;51.208;4.242;2023-04-01T17:27:40;6.73;;;2.60;;
19163;SDS011;9714;51.208;4.242;2023-04-01T17:30:24;9.33;;;3.23;;
19163;SDS011;9714;51.208;4.242;2023-04-01T17:33:05;14.13;;;3.73;;
19163;SDS011;9714;51.208;4.242;2023-04-01T17:35:50;13.57;;;4.17;;
19163;SDS011;9714;51.208;4.242;2023-04-01T17:38:29;13.50;;;4.57;;
19163;SDS011;9714;51.208;4.242;2023-04-01T17:41:14;14.33;;;5.57;;
19163;SDS011;9714;51.208;4.242;2023-04-01T17:43:48;19.73;;;5.53;;
19163;SDS011;9714;51.208;4.242;2023-04-01T17:46:26;16.10;;;6.17;;
19163;SDS011;9714;51.208;4.242;2023-04-01T17:49:02;18.50;;;7.60;;
19163;SDS011;9714;51.208;4.242;2023-04-01T17:51:48;20.10;;;7.43;;